createdAt,value
2018-01-04T00:00:50.925Z,70.25
2018-01-04T00:03:19.878Z,70.12
2018-01-04T00:05:48.505Z,70.04
2018-01-04T00:08:16.892Z,70.30
2018-01-04T00:10:46.825Z,71.52
2018-01-04T00:13:15.609Z,71.69
2018-01-04T00:15:44.711Z,72.13
2018-01-04T00:18:15.041Z,71.78
2018-01-04T00:20:45.096Z,71.73
2018-01-04T00:23:15.289Z,71.20
2018-01-04T00:25:45.013Z,70.44
2018-01-04T00:28:14.340Z,69.83
2018-01-04T00:30:44.796Z,70.01
2018-01-04T00:33:14.488Z,69.96
2018-01-04T00:35:43.840Z,70.02
2018-01-04T00:38:12.473Z,70.28
2018-01-04T00:40:42.644Z,69.39
2018-01-04T00:43:12.221Z,69.46
2018-01-04T00:45:41.445Z,69.16
2018-01-04T00:48:09.888Z,69.32
2018-01-04T00:50:39.012Z,68.80
2018-01-04T00:53:08.152Z,68.69
2018-01-04T00:55:36.976Z,69.19
2018-01-04T00:58:06.083Z,69.08
2018-01-04T01:00:34.813Z,69.49
2018-01-04T01:03:03.216Z,69.73
2018-01-04T01:05:31.940Z,70.48
2018-01-04T01:08:00.340Z,70.91
2018-01-04T01:10:29.689Z,70.66
2018-01-04T01:12:58.072Z,70.71
2018-01-04T01:15:26.421Z,69.90
2018-01-04T01:17:54.812Z,69.42
2018-01-04T01:20:26.752Z,68.92
2018-01-04T01:22:55.896Z,68.73
2018-01-04T01:25:25.024Z,68.38
2018-01-04T01:27:53.389Z,68.60
2018-01-04T01:30:24.165Z,68.79
2018-01-04T01:32:52.563Z,68.31
2018-01-04T01:35:20.967Z,68.80
2018-01-04T01:37:50.064Z,69.23
2018-01-04T01:40:19.226Z,69.70
2018-01-04T01:42:47.588Z,69.35
2018-01-04T01:45:15.959Z,69.36
2018-01-04T01:47:44.276Z,69.08
2018-01-04T01:50:13.378Z,68.99
2018-01-04T01:52:42.490Z,69.02
2018-01-04T01:55:11.356Z,69.06
2018-01-04T01:57:41.143Z,69.22
2018-01-04T02:00:11.177Z,68.65
2018-01-04T02:02:39.521Z,68.54
2018-01-04T02:05:08.306Z,68.14
2018-01-04T02:07:37.176Z,67.96
2018-01-04T02:12:47.213Z,67.65
2018-01-04T02:15:17.283Z,68.50
2018-01-04T02:17:47.147Z,68.43
2018-01-04T02:23:52.369Z,68.08
2018-01-04T02:26:39.025Z,67.92
2018-01-04T02:29:26.869Z,68.14
2018-01-04T02:32:13.655Z,68.34
2018-01-04T02:35:01.881Z,68.74
2018-01-04T02:37:50.036Z,68.44
2018-01-04T02:40:37.467Z,68.38
2018-01-04T02:43:24.180Z,68.65
2018-01-04T02:46:10.679Z,68.81
2018-01-04T02:48:39.099Z,69.54
2018-01-04T02:51:09.811Z,69.40
2018-01-04T02:53:38.156Z,69.53
2018-01-04T02:56:07.383Z,69.61
2018-01-04T02:58:35.899Z,69.62
2018-01-04T03:01:04.255Z,69.71
2018-01-04T03:03:32.595Z,69.75
2018-01-04T03:06:01.115Z,70.22
2018-01-04T03:08:29.851Z,69.90
2018-01-04T03:10:58.211Z,69.94
2018-01-04T03:13:28.218Z,70.17
2018-01-04T03:15:56.662Z,70.02
2018-01-04T03:18:26.575Z,69.95
2018-01-04T03:20:55.866Z,69.86
2018-01-04T03:23:30.031Z,69.95
2018-01-04T03:26:04.684Z,69.72
2018-01-04T03:28:38.572Z,69.86
2018-01-04T03:31:13.076Z,69.74
2018-01-04T03:33:46.887Z,69.98
2018-01-04T03:36:21.646Z,69.85
2018-01-04T03:38:55.715Z,69.57
2018-01-04T03:41:29.491Z,69.42
2018-01-04T03:44:04.174Z,69.06
2018-01-04T03:46:37.966Z,68.86
2018-01-04T03:49:12.138Z,69.79
2018-01-04T03:51:46.774Z,69.86
2018-01-04T03:54:20.646Z,69.96
2018-01-04T03:56:54.390Z,69.41
2018-01-04T03:59:30.390Z,69.16
2018-01-04T04:02:04.102Z,68.56
2018-01-04T04:04:39.175Z,68.84
2018-01-04T04:07:13.802Z,69.70
2018-01-04T04:09:42.154Z,70.06
2018-01-04T04:12:10.530Z,70.19
2018-01-04T04:14:40.150Z,70.86
2018-01-04T04:17:09.242Z,71.29
2018-01-04T04:19:38.375Z,71.40
2018-01-04T04:22:07.922Z,71.09
2018-01-04T04:24:36.254Z,71.06
2018-01-04T04:27:05.446Z,71.17
2018-01-04T04:29:34.510Z,71.25
2018-01-04T04:32:03.634Z,71.28
2018-01-04T04:34:32.770Z,71.30
2018-01-04T04:37:01.122Z,71.28
2018-01-04T04:39:30.946Z,71.31
2018-01-04T04:41:59.322Z,71.18
2018-01-04T04:44:27.630Z,71.04
2018-01-04T04:46:56.338Z,70.94
2018-01-04T04:49:25.094Z,70.83
2018-01-04T04:51:53.429Z,70.53
2018-01-04T04:54:21.875Z,70.72
2018-01-04T04:56:50.978Z,70.59
2018-01-04T04:59:20.158Z,70.33
2018-01-04T05:01:48.470Z,70.44
2018-01-04T05:04:17.217Z,70.26
2018-01-04T05:06:45.530Z,70.33
2018-01-04T05:09:13.875Z,70.15
2018-01-04T05:11:42.200Z,70.08
2018-01-04T05:14:10.635Z,69.81
2018-01-04T05:16:38.953Z,69.69
2018-01-04T05:19:08.033Z,69.70
2018-01-04T05:21:36.427Z,69.66
2018-01-04T05:24:04.753Z,69.46
2018-01-04T05:26:33.126Z,69.78
2018-01-04T05:29:01.449Z,69.95
2018-01-04T05:31:30.162Z,69.21
2018-01-04T05:33:58.918Z,69.03
2018-01-04T05:36:27.274Z,69.27
2018-01-04T05:38:56.499Z,69.70
2018-01-04T05:41:24.829Z,69.92
2018-01-04T05:43:53.151Z,69.97
2018-01-04T05:46:21.509Z,69.83
2018-01-04T05:48:49.865Z,70.14
2018-01-04T05:51:18.221Z,70.32
2018-01-04T05:53:48.057Z,69.50
2018-01-04T05:56:17.765Z,69.94
2018-01-04T05:58:46.106Z,70.33
2018-01-04T06:01:14.481Z,70.87
2018-01-04T06:03:43.663Z,71.22
2018-01-04T06:06:13.837Z,71.52
2018-01-04T06:08:42.212Z,71.31
2018-01-04T06:11:10.534Z,71.30
2018-01-04T06:13:38.851Z,71.25
2018-01-04T06:16:07.657Z,70.92
2018-01-04T06:18:35.945Z,71.11
2018-01-04T06:21:05.085Z,70.97
2018-01-04T06:23:33.409Z,70.91
2018-01-04T06:26:01.745Z,71.06
2018-01-04T06:28:30.114Z,71.05
2018-01-04T06:30:58.433Z,71.16
2018-01-04T06:33:26.789Z,71.15
2018-01-04T06:35:55.905Z,70.75
2018-01-04T06:38:25.082Z,70.95
2018-01-04T06:40:53.441Z,71.22
2018-01-04T06:43:21.765Z,70.87
2018-01-04T06:45:50.089Z,70.67
2018-01-04T06:48:18.449Z,70.93
2018-01-04T06:50:47.573Z,71.07
2018-01-04T06:53:16.285Z,70.72
2018-01-04T06:55:44.650Z,71.03
2018-01-04T06:58:13.029Z,71.48
2018-01-04T07:00:41.378Z,71.58
2018-01-04T07:03:09.745Z,72.05
2018-01-04T07:05:38.073Z,71.85
2018-01-04T07:08:06.441Z,71.88
2018-01-04T07:10:34.813Z,71.79
2018-01-04T07:13:03.153Z,71.73
2018-01-04T07:15:31.489Z,71.33
2018-01-04T07:17:59.845Z,71.66
2018-01-04T07:20:28.161Z,71.44
2018-01-04T07:22:57.275Z,71.66
2018-01-04T07:25:26.745Z,71.60
2018-01-04T07:27:56.264Z,71.79
2018-01-04T07:30:24.621Z,71.64
2018-01-04T07:32:53.085Z,71.38
2018-01-04T07:35:22.224Z,71.21
2018-01-04T07:37:51.445Z,71.15
2018-01-04T07:40:19.764Z,70.92
2018-01-04T07:42:48.869Z,70.79
2018-01-04T07:45:17.236Z,70.85
2018-01-04T07:47:45.556Z,70.49
2018-01-04T07:50:14.649Z,70.54
2018-01-04T07:52:43.793Z,69.96
2018-01-04T07:55:12.133Z,69.86
2018-01-04T07:57:41.229Z,69.94
2018-01-04T08:00:09.981Z,70.00
2018-01-04T08:02:38.714Z,70.06
2018-01-04T08:05:07.445Z,70.09
2018-01-04T08:07:36.577Z,69.96
2018-01-04T08:10:05.741Z,69.91
2018-01-04T08:12:34.110Z,69.44
2018-01-04T08:15:02.469Z,69.16
2018-01-04T08:17:30.801Z,69.18
2018-01-04T08:20:00.605Z,69.04
2018-01-04T08:22:28.974Z,68.82
2018-01-04T08:25:11.345Z,68.49
2018-01-04T08:27:40.103Z,68.50
2018-01-04T08:30:08.490Z,68.08
2018-01-04T08:32:37.581Z,67.87
2018-01-04T08:35:05.953Z,67.71
2018-01-04T08:37:34.281Z,67.21
2018-01-04T08:40:02.619Z,67.04
2018-01-04T08:42:30.993Z,66.33
2018-01-04T08:45:00.700Z,66.44
2018-01-04T08:47:29.480Z,66.66
2018-01-04T08:49:57.808Z,67.10
2018-01-04T08:52:27.285Z,67.95
2018-01-04T08:54:55.692Z,68.42
2018-01-04T08:57:24.028Z,69.03
2018-01-04T08:59:53.956Z,69.36
2018-01-04T09:02:22.322Z,69.39
2018-01-04T09:04:50.909Z,69.11
2018-01-04T09:07:19.649Z,69.71
2018-01-04T09:09:48.006Z,69.53
2018-01-04T09:12:23.480Z,68.95
2018-01-04T09:14:51.836Z,68.79
2018-01-04T09:17:20.584Z,67.97
2018-01-04T09:19:49.333Z,67.39
2018-01-04T09:22:18.436Z,67.45
2018-01-04T09:24:47.582Z,67.05
2018-01-04T09:27:15.962Z,67.05
2018-01-04T09:29:45.044Z,66.14
2018-01-04T09:32:13.410Z,65.69
2018-01-04T09:34:41.745Z,65.56
2018-01-04T09:37:10.098Z,65.90
2018-01-04T09:39:38.832Z,66.11
2018-01-04T09:42:07.980Z,66.24
2018-01-04T09:44:36.324Z,66.22
2018-01-04T09:47:05.436Z,66.08
2018-01-04T09:49:34.569Z,65.84
2018-01-04T09:52:03.324Z,64.81
2018-01-04T09:54:31.673Z,64.59
2018-01-04T09:57:00.001Z,64.91
2018-01-04T09:59:29.656Z,64.47
2018-01-04T10:01:58.396Z,64.29
2018-01-04T10:04:26.748Z,63.65
2018-01-04T10:06:55.116Z,62.73
2018-01-04T10:09:23.433Z,63.10
2018-01-04T10:11:51.801Z,62.05
2018-01-04T10:14:20.154Z,63.06
2018-01-04T10:16:48.865Z,63.24
2018-01-04T10:19:17.241Z,63.25
2018-01-04T10:21:46.717Z,63.62
2018-01-04T10:24:15.084Z,64.29
2018-01-04T10:26:43.832Z,64.42
2018-01-04T10:29:12.188Z,65.27
2018-01-04T10:31:40.912Z,65.67
2018-01-04T10:34:10.365Z,66.87
2018-01-04T10:36:39.071Z,67.52
2018-01-04T10:39:07.449Z,67.60
2018-01-04T10:41:35.789Z,67.09
2018-01-04T10:44:04.180Z,68.58
2018-01-04T10:46:32.504Z,68.48
2018-01-04T10:49:02.458Z,67.73
2018-01-04T10:51:31.600Z,67.72
2018-01-04T10:54:00.696Z,67.92
2018-01-04T10:56:29.074Z,68.71
2018-01-04T10:58:57.467Z,67.39
2018-01-04T11:01:26.863Z,66.35
2018-01-04T11:03:55.422Z,66.30
2018-01-04T11:06:23.711Z,66.72
2018-01-04T11:08:52.099Z,66.58
2018-01-04T11:11:20.801Z,67.29
2018-01-04T11:13:49.928Z,67.15
2018-01-04T11:16:19.411Z,66.85
2018-01-04T11:18:47.736Z,67.07
2018-01-04T11:21:16.116Z,67.41
2018-01-04T11:23:44.444Z,67.13
2018-01-04T11:26:12.827Z,68.30
2018-01-04T11:28:41.196Z,67.52
2018-01-04T11:31:09.580Z,66.99
2018-01-04T11:33:38.316Z,66.65
2018-01-04T11:36:07.459Z,66.44
2018-01-04T11:38:36.188Z,66.49
2018-01-04T11:41:04.919Z,66.49
2018-01-04T11:43:34.067Z,66.69
2018-01-04T11:46:03.180Z,66.41
2018-01-04T11:48:31.559Z,65.83
2018-01-04T11:50:59.875Z,65.54
2018-01-04T11:53:28.215Z,65.39
2018-01-04T11:55:56.583Z,65.76
2018-01-04T11:58:24.951Z,65.65
2018-01-04T12:00:53.310Z,65.30
2018-01-04T12:03:21.884Z,65.01
2018-01-04T12:05:50.244Z,65.39
2018-01-04T12:08:19.359Z,65.64
2018-01-04T12:10:48.124Z,65.20
2018-01-04T12:13:17.219Z,64.99
2018-01-04T12:15:46.352Z,64.30
2018-01-04T12:18:14.691Z,64.81
2018-01-04T12:20:43.402Z,65.03
2018-01-04T12:23:12.162Z,65.01
2018-01-04T12:25:41.291Z,64.59
2018-01-04T12:28:10.795Z,64.32
2018-01-04T12:30:39.510Z,65.16
2018-01-04T12:33:07.878Z,65.02
2018-01-04T12:35:36.601Z,64.90
2018-01-04T12:38:04.950Z,64.88
2018-01-04T12:40:33.398Z,64.71
2018-01-04T12:43:01.835Z,65.52
2018-01-04T12:45:30.163Z,65.76
2018-01-04T12:47:58.558Z,66.36
2018-01-04T12:50:27.358Z,66.58
2018-01-04T12:52:55.694Z,66.26
2018-01-04T12:55:24.074Z,65.50
2018-01-04T12:57:52.423Z,65.53
2018-01-04T13:00:21.515Z,65.98
2018-01-04T13:02:50.647Z,65.86
2018-01-04T13:05:18.978Z,65.82
2018-01-04T13:07:47.343Z,65.82
2018-01-04T13:10:15.695Z,65.98
2018-01-04T13:12:44.046Z,65.80
2018-01-04T13:15:12.361Z,65.92
2018-01-04T13:17:41.495Z,66.08
2018-01-04T13:20:10.577Z,66.86
2018-01-04T13:22:39.686Z,66.96
2018-01-04T13:25:08.818Z,67.18
2018-01-04T13:27:37.229Z,66.75
2018-01-04T13:30:05.814Z,66.20
2018-01-04T13:32:34.151Z,65.95
2018-01-04T13:35:02.507Z,66.58
2018-01-04T13:37:31.634Z,66.35
2018-01-04T13:40:01.665Z,66.06
2018-01-04T13:42:30.008Z,66.03
2018-01-04T13:44:59.099Z,66.39
2018-01-04T13:47:28.229Z,65.83
2018-01-04T13:49:56.603Z,66.05
2018-01-04T13:52:26.830Z,65.82
2018-01-04T13:54:55.293Z,65.93
2018-01-04T13:57:27.844Z,66.02
2018-01-04T13:59:57.165Z,65.99
2018-01-04T14:02:26.258Z,66.00
2018-01-04T14:04:55.510Z,66.11
2018-01-04T14:07:25.021Z,66.26
2018-01-04T14:09:54.321Z,66.27
2018-01-04T14:12:23.473Z,65.65
2018-01-04T14:14:51.815Z,65.68
2018-01-04T14:17:20.941Z,65.85
2018-01-04T14:19:50.137Z,65.55
2018-01-04T14:22:18.549Z,65.49
2018-01-04T14:24:47.667Z,65.97
2018-01-04T14:27:16.746Z,65.99
2018-01-04T14:29:45.067Z,66.01
2018-01-04T14:32:13.393Z,65.84
2018-01-04T14:34:41.743Z,65.90
2018-01-04T14:37:11.229Z,66.13
2018-01-04T14:39:39.977Z,66.24
2018-01-04T14:42:08.317Z,66.53
2018-01-04T14:44:36.717Z,66.68
2018-01-04T14:47:05.473Z,67.53
2018-01-04T14:49:34.980Z,68.12
2018-01-04T14:52:03.301Z,68.32
2018-01-04T14:54:31.662Z,68.61
2018-01-04T14:57:00.749Z,68.76
2018-01-04T14:59:30.641Z,68.76
2018-01-04T15:01:58.985Z,68.71
2018-01-04T15:04:28.084Z,68.80
2018-01-04T15:06:57.209Z,68.78
2018-01-04T15:09:26.745Z,68.73
2018-01-04T15:11:55.102Z,68.81
2018-01-04T15:14:23.473Z,68.62
2018-01-04T15:16:51.798Z,68.66
2018-01-04T15:19:20.128Z,68.64
2018-01-04T15:21:48.505Z,68.63
2018-01-04T15:24:16.845Z,68.75
2018-01-04T15:26:45.966Z,68.79
2018-01-04T15:29:14.322Z,68.91
2018-01-04T15:31:43.069Z,69.08
2018-01-04T15:34:11.528Z,68.90
2018-01-04T15:36:39.888Z,68.95
2018-01-04T15:39:08.277Z,68.87
2018-01-04T15:41:37.423Z,69.02
2018-01-04T15:44:05.795Z,69.05
2018-01-04T15:46:34.141Z,69.09
2018-01-04T15:49:02.527Z,69.19
2018-01-04T15:51:30.869Z,69.16
2018-01-04T15:53:59.201Z,69.11
2018-01-04T15:56:27.588Z,69.13
2018-01-04T15:58:55.919Z,69.18
2018-01-04T16:01:24.352Z,69.26
2018-01-04T16:03:53.533Z,69.33
2018-01-04T16:06:22.383Z,69.32
2018-01-04T16:08:50.716Z,69.31
2018-01-04T16:11:19.333Z,69.10
2018-01-04T16:13:47.674Z,69.16
2018-01-04T16:16:16.117Z,69.21
2018-01-04T16:18:44.458Z,69.13
2018-01-04T16:21:12.842Z,69.08
2018-01-04T16:23:41.194Z,68.84
2018-01-04T16:26:10.329Z,69.00
2018-01-04T16:28:38.708Z,68.97
2018-01-04T16:31:07.506Z,69.04
2018-01-04T16:33:35.913Z,69.00
2018-01-04T16:36:04.769Z,68.92
2018-01-04T16:38:33.841Z,69.10
2018-01-04T16:41:03.256Z,69.30
2018-01-04T16:43:31.595Z,69.22
2018-01-04T16:46:00.393Z,69.27
2018-01-04T16:48:29.532Z,69.46
2018-01-04T16:50:59.040Z,69.34
2018-01-04T16:53:27.432Z,69.38
2018-01-04T16:55:55.841Z,69.30
2018-01-04T16:58:24.786Z,69.21
2018-01-04T17:00:53.190Z,69.18
2018-01-04T17:03:22.297Z,69.07
2018-01-04T17:05:51.432Z,69.00
2018-01-04T17:08:20.274Z,68.81
2018-01-04T17:10:49.077Z,69.06
2018-01-04T17:13:18.820Z,69.17
2018-01-04T17:15:47.218Z,69.20
2018-01-04T17:18:16.394Z,69.24
2018-01-04T17:20:45.153Z,69.17
2018-01-04T17:23:14.749Z,69.16
2018-01-04T17:25:43.842Z,68.92
2018-01-04T17:28:12.304Z,69.01
2018-01-04T17:30:41.474Z,69.01
2018-01-04T17:33:09.801Z,69.09
2018-01-04T17:35:38.957Z,69.04
2018-01-04T17:38:07.347Z,68.86
2018-01-04T17:40:35.716Z,68.93
2018-01-04T17:43:05.785Z,69.11
2018-01-04T17:45:34.928Z,69.06
2018-01-04T17:48:03.281Z,69.05
2018-01-04T17:50:31.606Z,68.95
2018-01-04T17:53:01.504Z,69.01
2018-01-04T17:55:30.922Z,68.87
2018-01-04T17:57:59.328Z,68.79
2018-01-04T18:00:28.460Z,68.70
2018-01-04T18:02:57.254Z,68.44
2018-01-04T18:05:26.049Z,68.41
2018-01-04T18:07:54.416Z,68.30
2018-01-04T18:10:23.201Z,68.41
2018-01-04T18:12:51.528Z,68.49
2018-01-04T18:15:20.004Z,68.67
2018-01-04T18:17:48.816Z,68.85
2018-01-04T18:20:17.192Z,68.84
2018-01-04T18:22:46.344Z,68.91
2018-01-04T18:25:14.900Z,68.78
2018-01-04T18:27:43.264Z,68.75
2018-01-04T18:30:12.428Z,68.92
2018-01-04T18:32:40.782Z,69.30
2018-01-04T18:35:09.934Z,69.51
2018-01-04T18:37:38.303Z,69.75
2018-01-04T18:40:06.704Z,69.91
2018-01-04T18:42:35.137Z,70.05
2018-01-04T18:45:03.524Z,70.08
2018-01-04T18:47:34.136Z,70.38
2018-01-04T18:50:02.517Z,70.85
2018-01-04T18:52:30.857Z,70.78
2018-01-04T18:54:59.217Z,71.05
2018-01-04T18:57:28.240Z,71.33
2018-01-04T18:59:58.067Z,71.11
2018-01-04T19:02:26.498Z,71.18
2018-01-04T19:04:54.834Z,71.04
2018-01-04T19:07:23.841Z,71.22
2018-01-04T19:09:53.600Z,71.22
2018-01-04T19:12:23.192Z,70.83
2018-01-04T19:14:52.504Z,70.99
2018-01-04T19:17:20.917Z,70.98
2018-01-04T19:19:49.289Z,70.93
2018-01-04T19:22:18.567Z,70.72
2018-01-04T19:24:47.803Z,70.55
2018-01-04T19:27:16.141Z,70.51
2018-01-04T19:29:47.222Z,70.35
2018-01-04T19:32:18.287Z,70.32
2018-01-04T19:34:47.223Z,70.31
2018-01-04T19:37:17.917Z,70.45
2018-01-04T19:39:46.290Z,70.45
2018-01-04T19:42:17.025Z,70.32
2018-01-04T19:44:46.327Z,70.39
2018-01-04T19:47:19.103Z,70.47
2018-01-04T19:49:48.572Z,70.45
2018-01-04T19:52:43.851Z,70.39
2018-01-04T19:55:18.104Z,70.35
2018-01-04T19:58:09.214Z,70.11
2018-01-04T20:00:49.229Z,69.91
2018-01-04T20:03:18.391Z,70.00
2018-01-04T20:05:47.532Z,69.94
2018-01-04T20:08:16.012Z,70.53
2018-01-04T20:10:45.932Z,70.91
2018-01-04T20:13:16.630Z,71.26
2018-01-04T20:15:45.813Z,71.65
2018-01-04T20:18:17.142Z,71.67
2018-01-04T20:20:47.435Z,71.11
2018-01-04T20:23:15.794Z,71.13
2018-01-04T20:25:45.383Z,70.83
2018-01-04T20:28:13.767Z,70.92
2018-01-04T20:30:42.916Z,71.02
2018-01-04T20:33:13.003Z,71.18
2018-01-04T20:35:43.014Z,71.06
2018-01-04T20:38:14.618Z,71.20
2018-01-04T20:40:42.983Z,71.48
2018-01-04T20:43:12.122Z,71.68
2018-01-04T20:45:48.234Z,71.81
2018-01-04T20:48:16.969Z,72.16
2018-01-04T20:50:48.467Z,72.34
2018-01-04T20:53:18.154Z,72.33
2018-01-04T20:55:47.433Z,72.59
2018-01-04T20:58:16.583Z,72.44
2018-01-04T21:00:46.242Z,72.90
2018-01-04T21:03:15.366Z,73.32
2018-01-04T21:05:44.198Z,73.48
2018-01-04T21:08:12.979Z,73.75
2018-01-04T21:10:43.402Z,74.00
2018-01-04T21:13:13.694Z,74.27
2018-01-04T21:15:44.271Z,74.90
2018-01-04T21:18:12.870Z,74.72
2018-01-04T21:20:43.281Z,74.68
2018-01-04T21:23:14.579Z,74.83
2018-01-04T21:25:47.102Z,75.17
2018-01-04T21:28:16.403Z,75.13
2018-01-04T21:30:46.769Z,75.33
2018-01-04T21:33:17.241Z,76.06
2018-01-04T21:35:46.986Z,76.39
2018-01-04T21:38:17.457Z,76.72
2018-01-04T21:40:46.738Z,77.30
2018-01-04T21:43:16.794Z,77.93
2018-01-04T21:45:50.257Z,78.17
2018-01-04T21:48:19.813Z,78.63
2018-01-04T21:50:49.573Z,78.48
2018-01-04T21:53:20.762Z,78.66
2018-01-04T21:55:50.785Z,78.67
2018-01-04T21:58:20.745Z,78.54
2018-01-04T22:00:50.909Z,79.14
2018-01-04T22:03:19.905Z,79.09
2018-01-04T22:05:48.718Z,79.01
2018-01-04T22:08:17.882Z,78.69
2018-01-04T22:10:46.674Z,78.56
2018-01-04T22:13:15.451Z,78.22
2018-01-04T22:15:45.173Z,78.12
2018-01-04T22:18:14.345Z,77.84
2018-01-04T22:20:43.590Z,78.04
2018-01-04T22:23:11.997Z,77.95
2018-01-04T22:25:40.517Z,77.82
2018-01-04T22:28:09.018Z,77.79
2018-01-04T22:30:37.438Z,77.87
2018-01-04T22:33:06.409Z,78.09
2018-01-04T22:35:35.538Z,78.58
2018-01-04T22:38:03.962Z,78.76
2018-01-04T22:40:33.081Z,78.82
2018-01-04T22:43:02.961Z,78.75
2018-01-04T22:45:31.727Z,78.74
2018-01-04T22:48:00.869Z,78.57
2018-01-04T22:50:32.730Z,78.63
2018-01-04T22:53:01.567Z,79.01
2018-01-04T22:55:29.906Z,79.32
2018-01-04T22:57:58.358Z,79.56
2018-01-04T23:00:27.469Z,80.18
2018-01-04T23:02:56.226Z,79.88
2018-01-04T23:05:25.345Z,80.18
2018-01-04T23:07:55.438Z,80.26
2018-01-04T23:10:23.825Z,80.30
2018-01-04T23:12:53.042Z,80.23
2018-01-04T23:15:21.411Z,80.41
2018-01-04T23:17:51.270Z,80.93
2018-01-04T23:20:19.741Z,81.03
2018-01-04T23:22:48.466Z,81.22
2018-01-04T23:25:16.833Z,81.18
2018-01-04T23:27:45.555Z,81.08
2018-01-04T23:30:14.694Z,80.87
2018-01-04T23:32:43.050Z,80.79
2018-01-04T23:35:11.369Z,80.58
2018-01-04T23:37:39.719Z,80.57
2018-01-04T23:40:08.082Z,80.59
2018-01-04T23:42:36.400Z,81.13
2018-01-04T23:45:04.726Z,81.01
2018-01-04T23:47:33.081Z,81.55
2018-01-04T23:50:01.454Z,82.11
2018-01-04T23:52:29.765Z,82.25
2018-01-04T23:54:58.083Z,82.61
2018-01-04T23:57:26.438Z,82.82
2018-01-04T23:59:55.893Z,82.94
